Six Lakes, Michigan
Current Conditions -  °F | °C
As of 3:33 AM on Saturday 29 Nov 2014 (Local Time) from KAMN Reporting Station
Overcast Overcast  
Wind Chill: 23°   Ceiling: 6000
Heat Index: 28°   Visibility: 7mi
Dew Point: 25°   Wind: 5mph
Humidity: 88%   Direction: 160°SSE
Pressure: 29.95"   Gusts: NA
Location:  43.42°N, 85.15°W
Report Text: KAMN 290833Z AUTO 16004KT 7SM SCT048 OVC060 M02/M04 A2995 RMK AO2 T10231040
Loading
Personal Weather Stations






























Interactive Weather Map New forecast layout! Learn more

10-Day Weather Forecast

Advertisements
Track Severe Weather on mobile